Terminal Aerodrome Forecast
Issued by NWS Wilmington, OH

Current Version | Previous Version | Graphics & Text | Print | Product List | Glossary On
Versions: 1 2 3 4 5 6 7 8 9 10 11 12 13 14 15 16 17 18 19 20 21 22 23 24 25
755
FTUS41 KILN 222123 AAA
TAFDAY
TAF AMD
KDAY 222123Z 2221/2318 20008KT P6SM OVC015
      TEMPO 2221/2223 5SM BR
     FM230300 19005KT P6SM BKN025
     FM230800 20006KT 5SM BR VCSH OVC015
     FM231200 22005KT 2SM BR VCSH OVC007
     FM231600 22006KT 5SM BR OVC010=

USA.gov is the U.S. government's official web portal to all federal, state and local government web resources and services.